Time;durP1;ratioP1;P1;durP2;ratioP2;P2;SDS_P1;SDS_P2;PMS_P1;PMS_P2;Temp;Humidity;BMP_temperature;BMP_pressure;BME280_temperature;BME280_humidity;BME280_pressure;Samples;Min_cycle;Max_cycle;Signal;HPM_P1;HPM_P2
2022/04/09 00:02:10;;;;;;;7.63;2.08;;;3.60;99.90;;;;;;5035336;28;20385;-75
2022/04/09 00:04:36;;;;;;;5.05;1.98;;;3.60;99.90;;;;;;5035023;28;20045;-75
2022/04/09 00:07:03;;;;;;;7.50;1.90;;;3.60;99.90;;;;;;5034928;28;20546;-74
2022/04/09 00:09:28;;;;;;;6.85;1.65;;;3.60;99.90;;;;;;5034916;28;20049;-74
2022/04/09 00:11:54;;;;;;;6.53;1.60;;;3.50;99.90;;;;;;5034713;28;20092;-76
2022/04/09 00:14:20;;;;;;;4.45;1.65;;;3.60;99.90;;;;;;5034837;28;20405;-75
2022/04/09 00:16:45;;;;;;;7.20;1.80;;;3.50;99.90;;;;;;5034802;28;20042;-75
2022/04/09 00:19:11;;;;;;;6.97;1.80;;;3.50;99.90;;;;;;5034951;28;20049;-75
2022/04/09 00:21:36;;;;;;;14.15;2.55;;;3.50;99.90;;;;;;5034647;28;20051;-76
2022/04/09 00:24:02;;;;;;;4.70;1.50;;;3.50;99.90;;;;;;5034638;28;20092;-75
2022/04/09 00:26:28;;;;;;;10.70;2.30;;;3.60;99.90;;;;;;5034513;28;20045;-76
2022/04/09 00:28:53;;;;;;;7.38;1.85;;;3.60;99.90;;;;;;5034567;28;20520;-75
2022/04/09 00:31:19;;;;;;;11.68;2.42;;;3.60;99.90;;;;;;5034590;28;20120;-75
2022/04/09 00:33:45;;;;;;;6.13;1.98;;;3.70;99.90;;;;;;5034107;28;20481;-75
2022/04/09 00:36:10;;;;;;;8.80;1.83;;;3.40;99.90;;;;;;5034527;28;20045;-75
2022/04/09 00:38:36;;;;;;;7.05;2.15;;;3.70;99.90;;;;;;5034161;28;20493;-75
2022/04/09 00:41:01;;;;;;;6.70;2.03;;;3.80;99.90;;;;;;5034313;28;20516;-75
2022/04/09 00:43:27;;;;;;;3.72;1.60;;;3.80;99.90;;;;;;5034351;28;20042;-75
2022/04/09 00:45:52;;;;;;;6.15;2.10;;;3.70;99.90;;;;;;5034209;28;20133;-75
2022/04/09 00:48:20;;;;;;;6.30;1.60;;;3.70;99.90;;;;;;5034232;28;20053;-75
2022/04/09 00:50:47;;;;;;;3.92;1.75;;;3.70;99.90;;;;;;5034120;28;20123;-75
2022/04/09 00:53:15;;;;;;;;;;;3.60;99.90;;;;;;5034458;28;20038;-75
2022/04/09 00:58:28;;;;;;;7.07;1.52;;;3.50;99.90;;;;;;5033835;28;20050;-75
2022/04/09 01:00:53;;;;;;;4.55;1.50;;;3.50;99.90;;;;;;5033918;28;20057;-75
2022/04/09 01:03:19;;;;;;;6.13;1.73;;;3.50;99.90;;;;;;5034168;28;20045;-75
2022/04/09 01:05:46;;;;;;;7.13;1.53;;;3.40;99.90;;;;;;5033925;28;20053;-75
2022/04/09 01:08:12;;;;;;;10.88;1.98;;;3.40;99.90;;;;;;5033886;28;20288;-75
2022/04/09 01:10:38;;;;;;;9.90;1.80;;;3.30;99.90;;;;;;5033925;28;20053;-75
2022/04/09 01:13:04;;;;;;;10.45;1.70;;;3.30;99.90;;;;;;5034068;28;20760;-75
2022/04/09 01:15:29;;;;;;;8.85;2.35;;;3.20;99.90;;;;;;5032716;28;20045;-75
2022/04/09 01:17:55;;;;;;;16.02;2.40;;;3.20;99.90;;;;;;5033797;28;20402;-75
2022/04/09 01:20:23;;;;;;;5.32;1.85;;;3.20;99.90;;;;;;5033755;28;20072;-75
2022/04/09 01:22:49;;;;;;;8.32;1.85;;;3.20;99.90;;;;;;5033656;28;20046;-75
2022/04/09 01:25:14;;;;;;;6.83;1.87;;;3.30;99.90;;;;;;5033762;28;20104;-75
2022/04/09 01:27:40;;;;;;;9.05;2.00;;;2.80;99.90;;;;;;5034273;28;20049;-75
2022/04/09 01:30:07;;;;;;;10.52;1.60;;;2.90;99.90;;;;;;5033789;28;20483;-75
2022/04/09 01:32:32;;;;;;;6.15;2.03;;;3.50;99.90;;;;;;5033917;28;20050;-75
2022/04/09 01:35:02;;;;;;;8.18;1.67;;;3.50;99.90;;;;;;5033697;28;20046;-75
2022/04/09 01:37:28;;;;;;;4.60;1.42;;;3.50;99.90;;;;;;5033489;28;20041;-75
2022/04/09 01:39:53;;;;;;;7.95;1.67;;;3.50;99.90;;;;;;5034034;28;20060;-75
2022/04/09 01:42:21;;;;;;;5.35;1.48;;;3.50;99.90;;;;;;5033606;28;20037;-75
2022/04/09 01:44:47;;;;;;;4.30;1.92;;;3.50;99.90;;;;;;5033497;28;20049;-75
2022/04/09 01:47:13;;;;;;;7.17;1.53;;;3.40;99.90;;;;;;5033810;28;20053;-75
2022/04/09 01:49:39;;;;;;;9.48;1.77;;;3.40;99.90;;;;;;5033600;28;20049;-75
2022/04/09 01:52:04;;;;;;;4.15;1.52;;;3.40;99.90;;;;;;5033405;28;20450;-75
2022/04/09 01:54:30;;;;;;;11.05;1.95;;;3.30;99.90;;;;;;5033461;28;20057;-75
2022/04/09 01:56:55;;;;;;;3.60;1.55;;;3.30;99.90;;;;;;5033426;28;20049;-75
2022/04/09 01:59:21;;;;;;;8.38;1.70;;;3.30;99.90;;;;;;5033249;28;20393;-75
2022/04/09 02:01:48;;;;;;;11.85;1.80;;;3.20;99.90;;;;;;5033321;28;20474;-75
2022/04/09 02:04:15;;;;;;;8.48;1.88;;;3.20;99.90;;;;;;5033841;28;20045;-75
2022/04/09 02:06:42;;;;;;;7.70;2.20;;;3.20;99.90;;;;;;5033242;28;20045;-75
2022/04/09 02:09:11;;;;;;;10.23;1.90;;;3.30;99.90;;;;;;5033779;28;20444;-75
2022/04/09 02:11:40;;;;;;;11.73;2.17;;;3.20;99.90;;;;;;5036533;28;20497;-75
2022/04/09 02:14:10;;;;;;;6.70;2.05;;;3.20;99.90;;;;;;5036776;28;20136;-76
2022/04/09 02:16:37;;;;;;;7.03;2.05;;;3.20;99.90;;;;;;5037362;28;20080;-75
2022/04/09 02:19:03;;;;;;;7.35;2.60;;;3.30;99.90;;;;;;5037036;28;20046;-75
2022/04/09 02:21:29;;;;;;;4.13;2.15;;;3.40;99.90;;;;;;5036945;28;20046;-74
2022/04/09 02:23:55;;;;;;;4.63;1.58;;;3.30;99.90;;;;;;5036899;28;20511;-74
2022/04/09 02:26:20;;;;;;;4.45;1.50;;;3.30;99.90;;;;;;5036867;28;20370;-74
2022/04/09 02:28:48;;;;;;;6.60;1.63;;;3.30;99.90;;;;;;5036846;28;20057;-74
2022/04/09 02:31:17;;;;;;;7.55;2.85;;;3.40;99.90;;;;;;5036904;28;20366;-74
2022/04/09 02:33:46;;;;;;;5.88;1.70;;;3.40;99.90;;;;;;5036628;28;20041;-74
2022/04/09 02:36:13;;;;;;;8.02;1.73;;;3.30;99.90;;;;;;5036601;28;20037;-74
2022/04/09 02:38:39;;;;;;;12.68;2.33;;;3.30;99.90;;;;;;5036309;28;20505;-74
2022/04/09 02:41:09;;;;;;;5.40;1.98;;;3.30;99.90;;;;;;5036648;28;20060;-74
2022/04/09 02:43:40;;;;;;;8.98;2.00;;;3.20;99.90;;;;;;5036553;28;20047;-74
2022/04/09 02:46:05;;;;;;;8.23;1.92;;;3.20;99.90;;;;;;5036607;28;20076;-74
2022/04/09 02:48:31;;;;;;;8.38;2.10;;;3.10;99.90;;;;;;5036418;28;20045;-75
2022/04/09 02:50:56;;;;;;;10.77;2.72;;;3.10;99.90;;;;;;5036841;28;20052;-74
2022/04/09 02:53:22;;;;;;;6.85;2.20;;;3.10;99.90;;;;;;5036308;28;20481;-74
2022/04/09 02:55:47;;;;;;;10.52;2.03;;;3.00;99.90;;;;;;5036296;28;20045;-74
2022/04/09 02:58:13;;;;;;;8.48;1.90;;;3.00;99.90;;;;;;5036258;28;20081;-74
2022/04/09 03:00:39;;;;;;;9.13;2.10;;;3.00;99.90;;;;;;5036440;28;20045;-74
2022/04/09 03:03:05;;;;;;;9.20;1.90;;;3.00;99.90;;;;;;5036106;28;20059;-74
2022/04/09 03:05:30;;;;;;;10.75;2.10;;;3.00;99.90;;;;;;5036123;28;20132;-75
2022/04/09 03:07:57;;;;;;;10.52;1.90;;;2.90;99.90;;;;;;5036381;28;20045;-75
2022/04/09 03:10:23;;;;;;;10.40;2.22;;;2.90;99.90;;;;;;5036034;28;20049;-75
2022/04/09 03:12:49;;;;;;;7.25;1.90;;;2.90;99.90;;;;;;5035948;28;20042;-74
2022/04/09 03:15:14;;;;;;;9.57;1.75;;;2.90;99.90;;;;;;5036004;28;20048;-75
2022/04/09 03:17:41;;;;;;;9.57;1.77;;;2.80;99.90;;;;;;5035963;28;20076;-75
2022/04/09 03:20:07;;;;;;;7.80;1.80;;;2.90;99.90;;;;;;5036406;28;20056;-75
2022/04/09 03:22:33;;;;;;;4.63;1.40;;;2.80;99.90;;;;;;5034948;28;20041;-75
2022/04/09 03:24:59;;;;;;;6.00;1.80;;;2.70;99.90;;;;;;5035785;28;20397;-75
2022/04/09 03:27:26;;;;;;;8.93;1.70;;;2.70;99.90;;;;;;5035762;28;20045;-75
2022/04/09 03:29:52;;;;;;;11.07;2.28;;;2.70;99.90;;;;;;5035547;28;20393;-75
2022/04/09 03:32:18;;;;;;;7.85;1.83;;;2.60;99.90;;;;;;5035626;28;20096;-75
2022/04/09 03:34:44;;;;;;;4.78;1.85;;;2.60;99.90;;;;;;5035656;28;20055;-75
2022/04/09 03:37:10;;;;;;;7.40;2.10;;;2.60;99.90;;;;;;5035626;28;20045;-75
2022/04/09 03:39:37;;;;;;;4.85;1.70;;;2.50;99.90;;;;;;5035537;28;20049;-75
2022/04/09 03:42:03;;;;;;;6.50;2.05;;;2.50;99.90;;;;;;5035322;28;20497;-75
2022/04/09 03:44:29;;;;;;;8.65;1.80;;;2.50;99.90;;;;;;5035457;28;20497;-75
2022/04/09 03:47:02;;;;;;;5.18;1.52;;;2.40;99.90;;;;;;5035407;28;20057;-75
2022/04/09 03:49:32;;;;;;;7.10;1.70;;;2.40;99.90;;;;;;5035770;28;20397;-75
2022/04/09 03:51:58;;;;;;;7.82;1.90;;;2.50;99.90;;;;;;5035241;28;20077;-75
2022/04/09 03:54:25;;;;;;;3.58;1.33;;;2.40;99.90;;;;;;5035273;28;20523;-75
2022/04/09 03:56:52;;;;;;;5.18;1.77;;;2.40;99.90;;;;;;5035101;28;20500;-75
2022/04/09 03:59:18;;;;;;;5.97;1.58;;;2.40;99.90;;;;;;5035167;28;20038;-75
2022/04/09 04:01:46;;;;;;;7.13;1.65;;;2.40;99.90;;;;;;5034994;28;20045;-75
2022/04/09 04:04:11;;;;;;;6.05;1.50;;;2.50;99.90;;;;;;5035050;28;20053;-75
2022/04/09 04:06:38;;;;;;;8.35;2.13;;;2.40;99.90;;;;;;5035365;28;20064;-75
2022/04/09 04:09:04;;;;;;;9.30;1.73;;;2.40;99.90;;;;;;5034937;28;20049;-75
2022/04/09 04:11:29;;;;;;;9.07;2.40;;;2.40;99.90;;;;;;5034848;28;20045;-75
2022/04/09 04:13:55;;;;;;;4.63;1.75;;;2.40;99.90;;;;;;5034816;28;20042;-75
2022/04/09 04:16:21;;;;;;;7.75;1.73;;;2.40;99.90;;;;;;5034790;28;20042;-75
2022/04/09 04:18:47;;;;;;;3.88;1.50;;;2.50;99.90;;;;;;5034762;28;20053;-75
2022/04/09 04:21:12;;;;;;;7.22;1.58;;;2.50;99.90;;;;;;5034878;28;20049;-75
2022/04/09 04:23:38;;;;;;;4.63;1.33;;;2.60;99.90;;;;;;5034775;28;20034;-75
2022/04/09 04:26:04;;;;;;;5.88;1.80;;;2.60;99.90;;;;;;5034764;28;20417;-75
2022/04/09 04:28:29;;;;;;;8.73;1.60;;;2.70;99.90;;;;;;5034729;28;20045;-75
2022/04/09 04:30:55;;;;;;;2.85;1.40;;;2.70;99.90;;;;;;5034600;28;20057;-75
2022/04/09 04:33:21;;;;;;;4.85;1.88;;;2.70;99.90;;;;;;5034429;28;20057;-75
2022/04/09 04:35:47;;;;;;;5.07;1.40;;;2.80;99.90;;;;;;5034858;28;20132;-75
2022/04/09 04:38:13;;;;;;;6.40;1.30;;;2.80;99.90;;;;;;5034427;28;20046;-75
2022/04/09 04:40:39;;;;;;;4.20;1.40;;;2.80;99.90;;;;;;5034391;28;20175;-75
2022/04/09 04:43:05;;;;;;;2.95;1.67;;;2.70;99.90;;;;;;5034406;28;20038;-75
2022/04/09 04:45:31;;;;;;;7.75;1.67;;;2.70;99.90;;;;;;5034232;28;20437;-75
2022/04/09 04:47:57;;;;;;;5.13;1.48;;;2.70;99.90;;;;;;5034279;28;20132;-75
2022/04/09 04:50:23;;;;;;;5.00;1.60;;;2.70;99.90;;;;;;5034787;28;20132;-75
2022/04/09 04:52:49;;;;;;;6.70;1.67;;;2.70;99.90;;;;;;5034118;28;20052;-75
2022/04/09 04:55:15;;;;;;;10.70;1.63;;;2.60;99.90;;;;;;5033980;28;20276;-75
2022/04/09 04:57:52;;;;;;;6.00;1.50;;;2.60;99.90;;;;;;5034151;28;20041;-75
2022/04/09 05:00:22;;;;;;;5.55;1.48;;;2.60;99.90;;;;;;5034069;28;20543;-75
2022/04/09 05:02:49;;;;;;;7.32;1.52;;;2.60;99.90;;;;;;5034042;28;20045;-75
2022/04/09 05:05:15;;;;;;;6.03;1.35;;;2.60;99.90;;;;;;5033974;28;20049;-75
2022/04/09 05:07:49;;;;;;;9.18;1.85;;;2.60;99.90;;;;;;5033896;28;20527;-75
2022/04/09 05:10:16;;;;;;;5.68;1.27;;;2.70;99.90;;;;;;5033898;28;20099;-75
2022/04/09 05:12:42;;;;;;;5.90;1.40;;;2.80;99.90;;;;;;5033769;28;20053;-75
2022/04/09 05:15:11;;;;;;;2.88;1.45;;;2.90;99.90;;;;;;5033866;28;20041;-75
2022/04/09 05:17:37;;;;;;;7.28;1.52;;;2.90;99.90;;;;;;5033823;28;20103;-74
2022/04/09 05:20:04;;;;;;;5.53;2.20;;;2.90;99.90;;;;;;5034184;28;20396;-74
2022/04/09 05:22:31;;;;;;;6.05;1.63;;;2.90;99.90;;;;;;5033630;28;20493;-74
2022/04/09 05:24:57;;;;;;;4.47;1.38;;;2.90;99.90;;;;;;5033729;28;20155;-74
2022/04/09 05:27:23;;;;;;;5.03;1.38;;;3.00;99.90;;;;;;5033760;28;20385;-74
2022/04/09 05:29:49;;;;;;;7.13;2.45;;;3.00;99.90;;;;;;5033463;28;20045;-74
2022/04/09 05:32:16;;;;;;;4.90;1.42;;;3.10;99.90;;;;;;5034049;28;20046;-74
2022/04/09 05:34:41;;;;;;;8.05;1.77;;;3.10;99.90;;;;;;5033650;28;20393;-74
2022/04/09 05:37:07;;;;;;;9.88;1.75;;;3.20;99.90;;;;;;5033597;28;20046;-74
2022/04/09 05:39:32;;;;;;;3.92;1.30;;;3.20;99.90;;;;;;5033671;28;20180;-75
2022/04/09 05:41:58;;;;;;;10.75;1.40;;;3.20;99.90;;;;;;5033559;28;20037;-74
2022/04/09 05:44:24;;;;;;;5.80;1.13;;;3.20;99.90;;;;;;5032438;28;20069;-74
2022/04/09 05:46:49;;;;;;;4.45;1.58;;;3.20;99.90;;;;;;5037747;28;20497;-74
2022/04/09 05:49:15;;;;;;;3.53;1.50;;;3.20;99.90;;;;;;5037632;28;20473;-74
2022/04/09 05:51:41;;;;;;;5.78;1.55;;;3.30;99.90;;;;;;5037205;28;20049;-74
2022/04/09 05:54:06;;;;;;;8.68;1.63;;;3.30;99.90;;;;;;5037683;28;20132;-74
2022/04/09 05:56:32;;;;;;;6.05;1.35;;;3.30;99.90;;;;;;5037396;28;20045;-74
2022/04/09 05:58:58;;;;;;;7.53;1.67;;;3.40;99.90;;;;;;5037382;28;20041;-74
2022/04/09 06:01:24;;;;;;;7.18;1.45;;;3.40;99.90;;;;;;5037317;28;20096;-75
2022/04/09 06:03:50;;;;;;;4.18;1.48;;;3.40;99.90;;;;;;5037343;28;20046;-74
2022/04/09 06:06:15;;;;;;;6.85;1.63;;;3.50;99.90;;;;;;5037294;28;20048;-74
2022/04/09 06:08:41;;;;;;;6.10;1.55;;;3.50;99.90;;;;;;5037273;28;20395;-75
2022/04/09 06:11:06;;;;;;;9.30;1.70;;;3.60;99.90;;;;;;5037189;28;20056;-74
2022/04/09 06:13:32;;;;;;;8.00;1.77;;;3.60;99.90;;;;;;5036917;28;20045;-75
2022/04/09 06:15:58;;;;;;;11.45;1.77;;;3.70;99.90;;;;;;5037562;28;20045;-75
2022/04/09 06:18:24;;;;;;;5.07;1.50;;;3.90;99.90;;;;;;5037075;28;20497;-74
2022/04/09 06:20:49;;;;;;;6.70;1.33;;;4.00;99.90;;;;;;5036882;28;20045;-75
2022/04/09 06:23:15;;;;;;;6.47;2.10;;;4.20;99.90;;;;;;5037223;28;20120;-74
2022/04/09 06:25:40;;;;;;;8.07;1.40;;;4.40;99.90;;;;;;5036943;28;20461;-75
2022/04/09 06:28:08;;;;;;;6.28;1.48;;;4.60;99.90;;;;;;5036828;28;20129;-75
2022/04/09 06:30:34;;;;;;;7.45;1.45;;;4.70;99.90;;;;;;5036534;28;20456;-75
2022/04/09 06:32:59;;;;;;;6.38;1.15;;;4.80;99.90;;;;;;5036631;28;20049;-74
2022/04/09 06:35:25;;;;;;;4.53;1.35;;;4.80;99.90;;;;;;5036817;28;20077;-74
2022/04/09 06:37:50;;;;;;;4.65;1.42;;;4.90;99.90;;;;;;5036662;28;20099;-74
2022/04/09 06:40:17;;;;;;;3.40;1.25;;;5.00;99.90;;;;;;5036589;28;20053;-74
2022/04/09 06:42:42;;;;;;;4.07;1.38;;;4.90;99.90;;;;;;5036616;28;20041;-74
2022/04/09 06:45:09;;;;;;;6.68;1.63;;;4.90;99.90;;;;;;5036268;28;20045;-74
2022/04/09 06:47:37;;;;;;;5.15;1.92;;;4.90;99.90;;;;;;5036962;28;20393;-74
2022/04/09 06:50:11;;;;;;;7.10;2.03;;;5.00;99.90;;;;;;5036481;28;20449;-74
2022/04/09 06:52:36;;;;;;;8.57;2.15;;;5.00;99.90;;;;;;5036369;28;20045;-74
2022/04/09 06:55:04;;;;;;;6.20;1.42;;;5.10;99.90;;;;;;5036405;28;20049;-74
2022/04/09 06:57:30;;;;;;;7.70;1.50;;;5.20;99.90;;;;;;5033586;28;20469;-75
2022/04/09 06:59:56;;;;;;;7.97;1.70;;;5.40;99.90;;;;;;5036295;28;20041;-75
2022/04/09 07:02:22;;;;;;;9.55;2.05;;;5.50;99.90;;;;;;5036309;28;20125;-75
2022/04/09 07:04:47;;;;;;;10.20;1.80;;;5.60;99.90;;;;;;5036222;28;20052;-75
2022/04/09 07:07:27;;;;;;;9.63;2.15;;;5.70;99.90;;;;;;5036187;28;20094;-75
2022/04/09 07:10:02;;;;;;;8.98;2.20;;;5.80;99.90;;;;;;5036140;28;20057;-75
2022/04/09 07:12:28;;;;;;;6.80;1.95;;;5.90;99.90;;;;;;5036257;28;20064;-75
2022/04/09 07:14:53;;;;;;;8.77;2.03;;;6.10;99.90;;;;;;5036293;28;20509;-75
2022/04/09 07:17:20;;;;;;;10.00;2.95;;;6.20;99.90;;;;;;5035937;28;20045;-75
2022/04/09 07:19:46;;;;;;;7.03;1.80;;;6.30;99.90;;;;;;5035711;28;20135;-75
2022/04/09 07:22:12;;;;;;;4.97;1.70;;;6.50;99.90;;;;;;5035865;28;20045;-75
2022/04/09 07:24:37;;;;;;;8.80;1.98;;;6.60;99.90;;;;;;5035795;28;20076;-75
2022/04/09 07:27:03;;;;;;;6.38;1.45;;;6.80;99.90;;;;;;5035872;28;20474;-75
2022/04/09 07:29:29;;;;;;;12.98;2.00;;;6.80;99.90;;;;;;5035756;28;20103;-75
2022/04/09 07:31:55;;;;;;;7.18;2.03;;;6.80;99.90;;;;;;5035257;28;20444;-75
2022/04/09 07:34:20;;;;;;;7.30;1.77;;;6.70;99.90;;;;;;5035738;28;20045;-75
2022/04/09 07:36:46;;;;;;;7.97;1.70;;;6.60;99.90;;;;;;5035640;28;20053;-75
2022/04/09 07:39:11;;;;;;;5.80;1.95;;;6.60;99.90;;;;;;5035590;28;20041;-76
2022/04/09 07:41:37;;;;;;;6.20;1.60;;;6.60;99.90;;;;;;5035858;28;20045;-75
2022/04/09 07:44:03;;;;;;;7.90;1.75;;;6.60;99.90;;;;;;5035421;28;20045;-75
2022/04/09 07:46:28;;;;;;;6.07;1.40;;;6.70;99.90;;;;;;5035647;28;20503;-75
2022/04/09 07:48:54;;;;;;;7.00;2.15;;;6.70;99.90;;;;;;5035367;28;20051;-75
2022/04/09 07:51:20;;;;;;;6.15;1.63;;;6.80;99.90;;;;;;5035229;28;20046;-74
2022/04/09 07:53:45;;;;;;;8.52;1.45;;;6.90;99.90;;;;;;5017300;28;20343;-74
2022/04/09 07:56:11;;;;;;;4.57;1.35;;;7.00;99.90;;;;;;5035070;28;20371;-74
2022/04/09 07:58:36;;;;;;;5.68;1.40;;;7.00;99.90;;;;;;5035120;28;20052;-74
2022/04/09 08:01:02;;;;;;;9.10;1.80;;;7.10;99.90;;;;;;5035140;28;20052;-74
2022/04/09 08:03:28;;;;;;;6.03;1.40;;;7.20;99.90;;;;;;5034937;28;20049;-74
2022/04/09 08:05:53;;;;;;;9.25;1.67;;;7.30;99.90;;;;;;5034866;28;20116;-75
2022/04/09 08:08:19;;;;;;;7.75;1.52;;;7.20;99.90;;;;;;5034426;28;20468;-74
2022/04/09 08:10:45;;;;;;;8.32;1.67;;;;;;;;;;5034954;28;20485;-74
2022/04/09 08:13:10;;;;;;;7.40;1.58;;;7.20;99.90;;;;;;5034854;28;20041;-75
2022/04/09 08:15:37;;;;;;;6.20;1.58;;;7.30;99.90;;;;;;5034880;28;20050;-75
2022/04/09 08:18:06;;;;;;;5.13;2.20;;;7.40;99.90;;;;;;5034823;28;20045;-74
2022/04/09 08:20:32;;;;;;;8.27;1.60;;;7.60;99.90;;;;;;5034759;28;20053;-75
2022/04/09 08:22:57;;;;;;;7.63;2.13;;;7.60;99.90;;;;;;5034626;28;20481;-75
2022/04/09 08:25:23;;;;;;;11.90;2.92;;;7.80;99.90;;;;;;5034898;28;20041;-75
2022/04/09 08:27:52;;;;;;;6.15;1.60;;;7.80;99.90;;;;;;5035032;28;20046;-74
2022/04/09 08:30:19;;;;;;;6.35;1.75;;;8.00;99.90;;;;;;5034412;28;20054;-74
2022/04/09 08:32:45;;;;;;;8.13;1.30;;;8.00;99.90;;;;;;5034462;28;20049;-74
2022/04/09 08:35:11;;;;;;;3.20;1.27;;;8.10;99.90;;;;;;5034506;28;20057;-74
2022/04/09 08:37:37;;;;;;;5.63;1.40;;;8.10;99.90;;;;;;5034047;28;20519;-75
2022/04/09 08:40:03;;;;;;;4.22;1.27;;;8.10;99.90;;;;;;5034955;28;20042;-74
2022/04/09 08:42:30;;;;;;;9.32;1.40;;;8.20;99.90;;;;;;5034869;28;20139;-74
2022/04/09 08:44:55;;;;;;;4.95;1.50;;;8.40;99.90;;;;;;5034291;28;20045;-74
2022/04/09 08:47:25;;;;;;;6.13;1.45;;;8.50;99.90;;;;;;5034060;28;20551;-74
2022/04/09 08:49:52;;;;;;;3.67;1.10;;;8.50;99.90;;;;;;5034200;28;20128;-74
2022/04/09 08:52:17;;;;;;;7.93;1.80;;;8.50;99.90;;;;;;5034050;28;20044;-75
2022/04/09 08:54:43;;;;;;;7.93;1.30;;;8.60;99.90;;;;;;5034199;28;20041;-75
2022/04/09 08:57:10;;;;;;;8.45;1.40;;;8.70;99.90;;;;;;5034520;28;20052;-75
2022/04/09 08:59:35;;;;;;;5.20;1.23;;;8.70;99.90;;;;;;5034410;28;20128;-75
2022/04/09 09:02:02;;;;;;;5.65;1.05;;;8.70;99.90;;;;;;5034105;28;20520;-75
2022/04/09 09:04:28;;;;;;;6.35;1.08;;;8.70;99.90;;;;;;5033970;28;20544;-74
2022/04/09 09:06:53;;;;;;;6.45;1.30;;;8.70;99.90;;;;;;5033898;28;20049;-74
2022/04/09 09:09:29;;;;;;;6.00;1.58;;;8.70;99.90;;;;;;5033946;28;20099;-74
2022/04/09 09:11:57;;;;;;;2.95;1.10;;;8.60;99.90;;;;;;5034219;28;20121;-75
2022/04/09 09:14:33;;;;;;;6.18;1.40;;;8.70;99.90;;;;;;5033897;28;20055;-74
2022/04/09 09:17:01;;;;;;;4.40;1.35;;;8.70;99.90;;;;;;5034039;28;20045;-74
2022/04/09 09:19:47;;;;;;;6.38;1.20;;;8.70;99.90;;;;;;5033171;28;20049;-74
2022/04/09 09:22:14;;;;;;;4.25;1.20;;;8.70;99.90;;;;;;5034170;28;20374;-74
2022/04/09 09:24:39;;;;;;;7.70;1.75;;;8.90;99.90;;;;;;5033728;28;20045;-74
2022/04/09 09:27:06;;;;;;;6.28;1.40;;;9.00;99.90;;;;;;5033834;28;20393;-75
2022/04/09 09:29:33;;;;;;;4.27;1.27;;;9.10;99.90;;;;;;5033773;28;20114;-75
2022/04/09 09:32:03;;;;;;;8.35;1.20;;;9.10;99.90;;;;;;5033337;28;20091;-74
2022/04/09 09:34:30;;;;;;;8.18;1.25;;;9.20;99.90;;;;;;5034049;28;20041;-74
2022/04/09 09:36:56;;;;;;;4.95;0.93;;;9.40;99.90;;;;;;5033609;28;20501;-74
2022/04/09 09:39:25;;;;;;;5.95;1.15;;;9.50;99.90;;;;;;5033702;28;20153;-74
2022/04/09 09:41:58;;;;;;;4.55;1.10;;;9.50;99.90;;;;;;5033709;28;20049;-74
2022/04/09 09:44:25;;;;;;;4.22;1.10;;;9.50;99.90;;;;;;5033560;28;20132;-74
2022/04/09 09:46:53;;;;;;;3.53;1.05;;;9.40;99.90;;;;;;5033577;28;20050;-75
2022/04/09 09:49:21;;;;;;;6.18;1.13;;;9.30;99.90;;;;;;5033482;28;20059;-74
2022/04/09 09:52:08;;;;;;;4.85;1.08;;;9.30;99.90;;;;;;5033392;28;20046;-74
2022/04/09 09:54:52;;;;;;;5.60;1.40;;;9.40;99.90;;;;;;5033453;28;20056;-74
2022/04/09 09:57:20;;;;;;;3.20;1.02;;;9.50;99.90;;;;;;5033947;28;20124;-74
2022/04/09 09:59:46;;;;;;;5.18;1.52;;;9.40;99.90;;;;;;5033381;28;20057;-74
2022/04/09 10:02:17;;;;;;;4.57;1.10;;;9.40;99.90;;;;;;5033696;28;20041;-74
2022/04/09 10:04:43;;;;;;;3.22;1.10;;;9.40;99.90;;;;;;5033662;28;20049;-74
2022/04/09 10:07:10;;;;;;;2.25;1.00;;;9.20;99.90;;;;;;5033342;28;20088;-74
2022/04/09 10:09:35;;;;;;;6.72;1.27;;;9.20;99.90;;;;;;5032201;28;20068;-74
2022/04/09 10:12:05;;;;;;;3.50;1.30;;;9.30;99.90;;;;;;5033293;28;20046;-74
2022/04/09 10:14:32;;;;;;;4.90;1.52;;;9.60;99.90;;;;;;5033311;28;20128;-74
2022/04/09 10:17:00;;;;;;;7.03;1.20;;;9.80;99.90;;;;;;5033282;28;20045;-74
2022/04/09 10:19:26;;;;;;;4.25;1.17;;;9.80;99.90;;;;;;5033271;28;20038;-74
2022/04/09 10:21:52;;;;;;;5.80;1.30;;;9.70;99.90;;;;;;5033203;28;20050;-74
2022/04/09 10:24:23;;;;;;;4.43;1.10;;;9.60;99.90;;;;;;5033222;28;20042;-74
2022/04/09 10:26:49;;;;;;;4.20;1.13;;;9.40;99.90;;;;;;5033208;28;20359;-74
2022/04/09 10:29:15;;;;;;;9.65;1.30;;;9.20;99.90;;;;;;5033493;28;20124;-74
2022/04/09 10:31:41;;;;;;;7.45;1.50;;;9.00;99.90;;;;;;5035138;28;20390;-74
2022/04/09 10:34:10;;;;;;;6.13;0.90;;;8.80;99.90;;;;;;5036891;28;20049;-74
2022/04/09 10:36:45;;;;;;;8.45;1.60;;;8.70;99.90;;;;;;5036456;28;20550;-75
2022/04/09 10:39:25;;;;;;;7.63;1.27;;;8.60;99.90;;;;;;5036760;28;20045;-75
2022/04/09 10:41:51;;;;;;;5.82;1.15;;;8.60;99.90;;;;;;5036658;28;20536;-75
2022/04/09 10:44:51;;;;;;;6.20;1.23;;;8.20;99.90;;;;;;5036734;28;20049;-74
2022/04/09 10:47:18;;;;;;;4.30;1.38;;;8.00;99.90;;;;;;5036584;28;20045;-74
2022/04/09 10:50:05;;;;;;;6.68;1.25;;;7.70;99.90;;;;;;5036525;28;20056;-75
2022/04/09 10:52:34;;;;;;;5.28;1.20;;;7.60;99.90;;;;;;5036220;28;20052;-75
2022/04/09 10:55:20;;;;;;;7.00;1.38;;;7.50;99.90;;;;;;5036386;28;20042;-75
2022/04/09 10:57:47;;;;;;;8.82;2.10;;;7.70;99.90;;;;;;5036254;28;20053;-74
2022/04/09 11:00:31;;;;;;;5.20;1.98;;;7.80;99.90;;;;;;5036059;28;20508;-75
2022/04/09 11:03:15;;;;;;;5.05;1.55;;;7.80;99.90;;;;;;5036566;28;20045;-75
2022/04/09 11:05:43;;;;;;;5.72;1.15;;;8.00;99.90;;;;;;5036174;28;20088;-75
2022/04/09 11:08:14;;;;;;;5.82;1.33;;;8.10;99.90;;;;;;5036122;28;20081;-75
2022/04/09 11:10:42;;;;;;;5.35;1.20;;;8.10;99.90;;;;;;5036384;28;20042;-75
2022/04/09 11:13:12;;;;;;;5.10;1.45;;;8.10;99.90;;;;;;5036239;28;20470;-76
2022/04/09 11:15:45;;;;;;;7.68;2.55;;;8.10;99.90;;;;;;5036202;28;20440;-75
2022/04/09 11:18:10;;;;;;;5.43;1.63;;;8.10;99.90;;;;;;5036051;28;20049;-75
2022/04/09 11:20:37;;;;;;;3.45;1.10;;;8.00;99.90;;;;;;5035901;28;20056;-75
2022/04/09 11:23:19;;;;;;;4.03;1.10;;;7.70;99.90;;;;;;5035828;28;20095;-75
2022/04/09 11:25:46;;;;;;;3.83;1.45;;;7.50;99.90;;;;;;5035892;28;20080;-75
2022/04/09 11:28:17;;;;;;;5.75;1.20;;;7.10;99.90;;;;;;5035833;28;20124;-74
2022/04/09 11:30:58;;;;;;;3.58;1.13;;;6.80;99.90;;;;;;5035643;28;20049;-75
2022/04/09 11:33:23;;;;;;;1.00;0.70;;;6.50;99.90;;;;;;5035621;28;20056;-75
2022/04/09 11:35:49;;;;;;;2.15;1.02;;;6.30;99.90;;;;;;5035655;28;20053;-75
2022/04/09 11:38:16;;;;;;;5.85;1.05;;;6.40;99.90;;;;;;5035648;28;20045;-75
2022/04/09 11:40:48;;;;;;;4.40;1.20;;;6.20;99.90;;;;;;5035627;28;20045;-75
2022/04/09 11:43:14;;;;;;;4.22;1.33;;;6.20;99.90;;;;;;5035111;28;20104;-76
2022/04/09 11:45:40;;;;;;;8.27;1.20;;;6.30;99.90;;;;;;5035448;28;20081;-76
2022/04/09 11:48:06;;;;;;;5.20;1.23;;;6.60;99.90;;;;;;5035137;28;20093;-75
2022/04/09 11:50:39;;;;;;;6.18;1.40;;;6.90;99.90;;;;;;5035284;28;20041;-73
2022/04/09 11:53:16;;;;;;;4.05;1.40;;;7.20;99.90;;;;;;5035766;28;20033;-74
2022/04/09 11:55:43;;;;;;;9.57;2.13;;;7.60;99.90;;;;;;5035246;28;20060;-74
2022/04/09 11:58:11;;;;;;;8.02;1.55;;;8.00;99.90;;;;;;5035263;28;20071;-74
2022/04/09 12:00:38;;;;;;;6.68;1.50;;;8.30;99.90;;;;;;5034986;28;20053;-74
2022/04/09 12:03:05;;;;;;;5.85;1.25;;;8.60;99.90;;;;;;5035529;28;20168;-74
2022/04/09 12:05:41;;;;;;;5.47;1.30;;;8.70;99.90;;;;;;5035072;28;20045;-75
2022/04/09 12:08:11;;;;;;;5.65;1.35;;;9.00;99.90;;;;;;5035079;28;20128;-74
2022/04/09 12:10:51;;;;;;;6.57;1.42;;;9.00;99.90;;;;;;5034678;28;20045;-75
2022/04/09 12:13:36;;;;;;;6.25;1.40;;;8.90;99.90;;;;;;5034869;28;20080;-75
2022/04/09 12:16:14;;;;;;;10.75;1.95;;;8.90;99.90;;;;;;5034717;28;20049;-74
2022/04/09 12:18:41;;;;;;;5.55;1.45;;;8.80;99.90;;;;;;5017761;28;20054;-74
2022/04/09 12:21:20;;;;;;;9.07;1.73;;;8.90;99.90;;;;;;5034776;28;20077;-75
2022/04/09 12:23:58;;;;;;;5.95;1.50;;;8.90;99.90;;;;;;5034797;28;20056;-75
2022/04/09 12:26:25;;;;;;;3.53;1.10;;;8.90;99.90;;;;;;5034715;28;20045;-74
2022/04/09 12:29:09;;;;;;;;;;;9.00;99.90;;;;;;5035045;28;20091;-74
2022/04/09 12:31:42;;;;;;;5.25;1.10;;;9.10;99.90;;;;;;5035008;28;20404;-74
2022/04/09 12:34:09;;;;;;;6.25;1.17;;;9.30;99.90;;;;;;5034172;28;20443;-74
2022/04/09 12:36:36;;;;;;;3.70;1.10;;;9.30;99.90;;;;;;5034557;28;20041;-74
2022/04/09 12:39:25;;;;;;;3.92;1.30;;;9.50;99.90;;;;;;5034450;28;20892;-75
2022/04/09 12:41:51;;;;;;;2.30;0.80;;;9.70;99.90;;;;;;5034437;28;20124;-75
2022/04/09 12:44:31;;;;;;;5.60;1.13;;;9.80;99.90;;;;;;5034534;28;20207;-75
2022/04/09 12:46:57;;;;;;;3.55;1.65;;;9.90;99.90;;;;;;5034032;28;20489;-75
2022/04/09 12:49:34;;;;;;;2.90;0.90;;;10.10;99.90;;;;;;5034313;28;20124;-75
2022/04/09 12:52:00;;;;;;;3.93;1.03;;;10.30;99.90;;;;;;5034382;28;20287;-75
2022/04/09 12:54:28;;;;;;;5.07;1.50;;;10.40;99.90;;;;;;5033619;28;20635;-75
2022/04/09 12:56:54;;;;;;;4.55;1.05;;;10.40;99.90;;;;;;5034012;28;20041;-75
2022/04/09 12:59:19;;;;;;;2.17;0.98;;;10.30;99.90;;;;;;5034171;28;20045;-75
2022/04/09 13:01:45;;;;;;;5.95;0.95;;;10.20;99.90;;;;;;5034120;28;20053;-75
2022/04/09 13:04:11;;;;;;;5.07;1.15;;;10.00;99.90;;;;;;5034045;28;20037;-75